Time;durP1;ratioP1;P1;durP2;ratioP2;P2;SDS_P1;SDS_P2;PMS_P1;PMS_P2;Temp;Humidity;BMP_temperature;BMP_pressure;BME280_temperature;BME280_humidity;BME280_pressure;Samples;Min_cycle;Max_cycle;Signal;HPM_P1;HPM_P2
2024/04/08 00:01:45;;;;;;;;;;;18.40;67.40;;;;;;5045611;28;1898;-72
2024/04/08 00:04:11;;;;;;;;;;;18.40;67.40;;;;;;5043801;28;1236;-73
2024/04/08 00:06:36;;;;;;;;;;;18.40;67.40;;;;;;5024597;28;1478;-73
2024/04/08 00:09:03;;;;;;;;;;;18.40;67.40;;;;;;5041006;28;1262;-73
2024/04/08 00:11:28;;;;;;;;;;;18.40;67.40;;;;;;5041739;28;1544;-72
2024/04/08 00:13:54;;;;;;;;;;;18.40;67.40;;;;;;5082929;28;1457;-72
2024/04/08 00:16:19;;;;;;;;;;;18.40;67.50;;;;;;5044762;28;1366;-72
2024/04/08 00:18:45;;;;;;;;;;;18.40;67.50;;;;;;5055417;28;877;-72
2024/04/08 00:21:10;;;;;;;;;;;18.40;67.50;;;;;;5047173;28;1906;-72
2024/04/08 00:23:36;;;;;;;;;;;18.30;67.40;;;;;;5045276;28;1238;-71
2024/04/08 00:26:02;;;;;;;;;;;18.30;67.40;;;;;;5043303;28;1300;-73
2024/04/08 00:28:27;;;;;;;;;;;18.40;67.50;;;;;;5081344;28;1034;-74
2024/04/08 00:30:59;;;;;;;;;;;18.30;67.40;;;;;;5050116;28;1008;-73
2024/04/08 00:33:24;;;;;;;;;;;18.40;67.50;;;;;;5074260;28;1363;-73
2024/04/08 00:35:50;;;;;;;;;;;18.40;67.50;;;;;;5043089;28;1431;-74
2024/04/08 00:38:15;;;;;;;;;;;18.40;67.50;;;;;;5040500;28;1257;-73
2024/04/08 00:40:41;;;;;;;;;;;18.30;67.40;;;;;;5040560;28;1591;-73
2024/04/08 00:43:07;;;;;;;;;;;18.40;67.50;;;;;;5041117;28;1906;-73
2024/04/08 00:45:33;;;;;;;;;;;18.40;67.50;;;;;;5042075;28;1135;-73
2024/04/08 00:47:58;;;;;;;;;;;18.40;67.50;;;;;;5048835;28;1260;-73
2024/04/08 00:50:24;;;;;;;;;;;18.40;67.50;;;;;;5038500;28;1381;-73
2024/04/08 00:52:49;;;;;;;;;;;18.40;67.50;;;;;;5038221;28;1126;-74
2024/04/08 00:55:15;;;;;;;;;;;18.30;67.40;;;;;;5043653;28;1196;-73
2024/04/08 00:57:40;;;;;;;;;;;18.40;67.50;;;;;;5038717;28;1288;-74
2024/04/08 01:00:06;;;;;;;;;;;18.40;67.50;;;;;;5040784;28;1066;-73
2024/04/08 01:02:32;;;;;;;;;;;18.30;67.40;;;;;;5048241;28;1906;-73
2024/04/08 01:04:57;;;;;;;;;;;18.40;67.50;;;;;;5041805;28;1244;-73
2024/04/08 01:07:23;;;;;;;;;;;18.40;67.60;;;;;;5043966;28;1312;-73
2024/04/08 01:09:48;;;;;;;;;;;18.40;67.50;;;;;;5076368;28;1426;-73
2024/04/08 01:12:13;;;;;;;;;;;18.40;67.50;;;;;;5039803;28;1269;-73
2024/04/08 01:14:39;;;;;;;;;;;18.40;67.60;;;;;;5044935;28;1581;-73
2024/04/08 01:17:05;;;;;;;;;;;18.30;67.50;;;;;;5041776;28;1709;-73
2024/04/08 01:19:31;;;;;;;;;;;18.30;67.50;;;;;;5041087;28;1466;-73
2024/04/08 01:21:56;;;;;;;;;;;18.40;67.50;;;;;;5074039;28;1906;-73
2024/04/08 01:24:22;;;;;;;;;;;18.40;67.60;;;;;;5040436;28;1288;-73
2024/04/08 01:26:47;;;;;;;;;;;18.40;68.30;;;;;;5042229;28;1741;-74
2024/04/08 01:29:13;;;;;;;;;;;18.40;67.50;;;;;;5037519;28;967;-74
2024/04/08 01:31:38;;;;;;;;;;;18.40;67.60;;;;;;5041083;28;1271;-74
2024/04/08 01:34:04;;;;;;;;;;;18.30;67.50;;;;;;5042298;28;1397;-74
2024/04/08 01:36:30;;;;;;;;;;;18.40;67.60;;;;;;5036934;28;1597;-71
2024/04/08 01:38:55;;;;;;;;;;;18.40;67.60;;;;;;5040669;28;1488;-72
2024/04/08 01:41:20;;;;;;;;;;;18.30;67.50;;;;;;5039869;28;1906;-72
2024/04/08 01:43:46;;;;;;;;;;;18.40;67.60;;;;;;5041763;28;1466;-73
2024/04/08 01:46:11;;;;;;;;;;;18.40;67.60;;;;;;5046840;28;1308;-73
2024/04/08 01:48:37;;;;;;;;;;;18.40;67.60;;;;;;5074149;28;1480;-74
2024/04/08 01:51:02;;;;;;;;;;;18.40;67.60;;;;;;5054501;28;1534;-73
2024/04/08 01:53:28;;;;;;;;;;;18.40;67.60;;;;;;5071815;28;1484;-73
2024/04/08 01:55:54;;;;;;;;;;;18.40;67.60;;;;;;5039251;28;1396;-73
2024/04/08 01:58:19;;;;;;;;;;;18.40;68.40;;;;;;5035936;28;1485;-73
2024/04/08 02:00:45;;;;;;;;;;;18.40;67.60;;;;;;5041575;28;1392;-73
2024/04/08 02:03:10;;;;;;;;;;;18.40;67.60;;;;;;5040451;28;1906;-73
2024/04/08 02:05:36;;;;;;;;;;;18.40;67.60;;;;;;5039323;28;1360;-73
2024/04/08 02:08:01;;;;;;;;;;;18.40;67.60;;;;;;5039089;28;1654;-73
2024/04/08 02:10:27;;;;;;;;;;;18.40;67.60;;;;;;5037708;28;1164;-73
2024/04/08 02:12:52;;;;;;;;;;;18.40;67.60;;;;;;5040742;28;1183;-74
2024/04/08 02:15:18;;;;;;;;;;;18.40;67.70;;;;;;5038456;28;1277;-73
2024/04/08 02:17:43;;;;;;;;;;;18.40;67.60;;;;;;5038408;28;1596;-73
2024/04/08 02:20:09;;;;;;;;;;;18.40;67.70;;;;;;5039115;28;1512;-72
2024/04/08 02:22:35;;;;;;;;;;;18.40;67.60;;;;;;5040951;28;1958;-72
2024/04/08 02:25:00;;;;;;;;;;;18.30;67.60;;;;;;5043531;28;1789;-73
2024/04/08 02:27:26;;;;;;;;;;;18.40;67.60;;;;;;5039692;28;1477;-74
2024/04/08 02:29:51;;;;;;;;;;;18.30;67.60;;;;;;5039845;28;1361;-73
2024/04/08 02:32:17;;;;;;;;;;;18.30;67.60;;;;;;5039247;28;1003;-72
2024/04/08 02:34:42;;;;;;;;;;;18.40;67.60;;;;;;5038040;28;1343;-73
2024/04/08 02:37:08;;;;;;;;;;;18.40;67.60;;;;;;5038041;28;1436;-72
2024/04/08 02:39:33;;;;;;;;;;;18.30;67.60;;;;;;5037432;28;1333;-72
2024/04/08 02:41:59;;;;;;;;;;;18.40;67.70;;;;;;5039721;28;1987;-72
2024/04/08 02:44:24;;;;;;;;;;;18.30;67.60;;;;;;5039312;28;1343;-72
2024/04/08 02:46:49;;;;;;;;;;;18.40;67.60;;;;;;5040146;28;1282;-72
2024/04/08 02:49:15;;;;;;;;;;;18.40;67.60;;;;;;5040102;28;1662;-72
2024/04/08 02:51:43;;;;;;;;;;;18.30;67.60;;;;;;5038465;28;1580;-72
2024/04/08 02:54:08;;;;;;;;;;;18.30;67.60;;;;;;5036027;28;1214;-72
2024/04/08 02:56:35;;;;;;;;;;;18.30;67.60;;;;;;5039279;28;1359;-73
2024/04/08 02:59:01;;;;;;;;;;;18.40;67.60;;;;;;5039888;28;1136;-72
2024/04/08 03:01:26;;;;;;;;;;;18.30;67.60;;;;;;5037607;28;1941;-73
2024/04/08 03:03:53;;;;;;;;;;;18.30;67.60;;;;;;5041084;28;1516;-73
2024/04/08 03:06:18;;;;;;;;;;;18.30;67.60;;;;;;5039221;28;1463;-73
2024/04/08 03:08:44;;;;;;;;;;;18.30;67.60;;;;;;5071788;28;1636;-73
2024/04/08 03:11:09;;;;;;;;;;;18.30;67.60;;;;;;5039067;28;1589;-73
2024/04/08 03:13:35;;;;;;;;;;;18.40;67.60;;;;;;5037827;28;1135;-73
2024/04/08 03:16:01;;;;;;;;;;;18.30;67.60;;;;;;5038893;28;1644;-74
2024/04/08 03:18:26;;;;;;;;;;;18.30;67.60;;;;;;5039684;28;1302;-74
2024/04/08 03:20:59;;;;;;;;;;;18.30;67.60;;;;;;5034961;28;1905;-73
2024/04/08 03:23:24;;;;;;;;;;;18.30;67.60;;;;;;5037009;28;1250;-74
2024/04/08 03:25:59;;;;;;;;;;;18.40;67.60;;;;;;5037481;28;1742;-73
2024/04/08 03:28:24;;;;;;;;;;;18.30;67.60;;;;;;5037564;28;1447;-74
2024/04/08 03:30:50;;;;;;;;;;;18.40;67.60;;;;;;5035186;28;1330;-74
2024/04/08 03:33:15;;;;;;;;;;;18.30;67.60;;;;;;5067840;28;1464;-74
2024/04/08 03:35:41;;;;;;;;;;;18.30;67.60;;;;;;5037356;28;1184;-74
2024/04/08 03:38:07;;;;;;;;;;;18.30;67.60;;;;;;5039154;28;1241;-74
2024/04/08 03:40:32;;;;;;;;;;;18.30;67.60;;;;;;5040920;28;1376;-74
2024/04/08 03:42:58;;;;;;;;;;;18.30;67.60;;;;;;5048026;28;1905;-73
2024/04/08 03:45:23;;;;;;;;;;;18.30;67.60;;;;;;5038022;28;1590;-74
2024/04/08 03:47:48;;;;;;;;;;;18.30;67.60;;;;;;5036902;28;1429;-73
2024/04/08 03:50:14;;;;;;;;;;;18.40;67.60;;;;;;5069623;28;1373;-73
2024/04/08 03:52:39;;;;;;;;;;;18.30;67.60;;;;;;5038068;28;938;-73
2024/04/08 03:55:05;;;;;;;;;;;18.30;67.60;;;;;;5041219;28;872;-74
2024/04/08 03:57:30;;;;;;;;;;;18.40;67.60;;;;;;5037033;28;1394;-74
2024/04/08 03:59:56;;;;;;;;;;;18.30;67.60;;;;;;5034396;28;998;-74
2024/04/08 04:02:21;;;;;;;;;;;18.30;67.60;;;;;;5038599;28;1890;-74
2024/04/08 04:04:47;;;;;;;;;;;18.30;67.60;;;;;;5042415;28;1454;-71
2024/04/08 04:07:12;;;;;;;;;;;18.30;67.60;;;;;;5041186;28;1490;-71
2024/04/08 04:09:38;;;;;;;;;;;18.30;67.60;;;;;;5044624;28;1557;-70
2024/04/08 04:12:04;;;;;;;;;;;18.30;67.60;;;;;;5040175;28;1384;-71
2024/04/08 04:14:29;;;;;;;;;;;18.30;67.60;;;;;;5057210;28;1516;-71
2024/04/08 04:16:54;;;;;;;;;;;18.30;67.60;;;;;;5040945;28;1674;-70
2024/04/08 04:19:20;;;;;;;;;;;18.30;67.60;;;;;;5039172;28;1630;-71
2024/04/08 04:21:45;;;;;;;;;;;18.30;67.60;;;;;;5043085;28;1910;-72
2024/04/08 04:24:11;;;;;;;;;;;18.30;67.60;;;;;;5040841;28;1601;-72
2024/04/08 04:26:36;;;;;;;;;;;18.30;67.60;;;;;;5076463;28;1406;-72
2024/04/08 04:29:02;;;;;;;;;;;18.30;67.60;;;;;;5044478;28;1761;-73
2024/04/08 04:31:39;;;;;;;;;;;18.30;67.60;;;;;;5040803;28;1555;-72
2024/04/08 04:34:07;;;;;;;;;;;18.30;67.60;;;;;;5039868;28;1801;-73
2024/04/08 04:36:33;;;;;;;;;;;18.30;67.60;;;;;;5040810;28;1350;-71
2024/04/08 04:38:58;;;;;;;;;;;18.30;67.60;;;;;;5043242;28;1457;-71
2024/04/08 04:41:24;;;;;;;;;;;18.30;67.60;;;;;;5042087;28;1878;-71
2024/04/08 04:43:49;;;;;;;;;;;18.30;67.70;;;;;;5043234;28;1589;-72
2024/04/08 04:46:15;;;;;;;;;;;18.30;67.60;;;;;;5040527;28;1632;-72
2024/04/08 04:48:43;;;;;;;;;;;18.30;67.60;;;;;;5039966;28;1471;-72
2024/04/08 04:51:09;;;;;;;;;;;18.30;67.70;;;;;;5041767;28;1462;-70
2024/04/08 04:53:35;;;;;;;;;;;18.30;67.60;;;;;;5042428;28;1200;-73
2024/04/08 04:56:00;;;;;;;;;;;18.40;67.70;;;;;;5039409;28;1727;-75
2024/04/08 04:58:26;;;;;;;;;;;18.30;67.70;;;;;;5044853;28;1286;-74
2024/04/08 05:00:51;;;;;;;;;;;18.30;67.60;;;;;;5072505;28;1529;-74
2024/04/08 05:03:18;;;;;;;;;;;18.30;67.60;;;;;;5040577;28;1965;-74
2024/04/08 05:05:50;;;;;;;;;;;18.30;67.60;;;;;;5056195;28;1441;-73
2024/04/08 05:08:16;;;;;;;;;;;18.30;67.60;;;;;;5043145;28;1461;-73
2024/04/08 05:10:42;;;;;;;;;;;18.30;67.70;;;;;;5059002;28;1515;-73
2024/04/08 05:13:08;;;;;;;;;;;18.30;67.70;;;;;;5039671;28;1456;-73
2024/04/08 05:15:33;;;;;;;;;;;18.30;67.70;;;;;;5037335;28;1288;-74
2024/04/08 05:17:59;;;;;;;;;;;18.30;67.70;;;;;;5042867;28;1551;-74
2024/04/08 05:20:26;;;;;;;;;;;18.30;67.70;;;;;;5042213;28;1457;-73
2024/04/08 05:22:52;;;;;;;;;;;18.30;67.70;;;;;;5040070;28;1910;-73
2024/04/08 05:25:18;;;;;;;;;;;18.30;67.70;;;;;;5061939;28;893;-76
2024/04/08 05:27:43;;;;;;;;;;;18.30;67.70;;;;;;5048462;28;1324;-75
2024/04/08 05:30:09;;;;;;;;;;;18.30;67.70;;;;;;5045934;28;1188;-77
2024/04/08 05:32:35;;;;;;;;;;;18.30;67.70;;;;;;5044201;28;969;-76
2024/04/08 05:35:01;;;;;;;;;;;18.30;67.70;;;;;;5042946;28;1526;-72
2024/04/08 05:37:26;;;;;;;;;;;18.30;67.70;;;;;;5034077;28;2264;-75
2024/04/08 05:39:52;;;;;;;;;;;18.30;67.70;;;;;;5041562;28;1338;-73
2024/04/08 05:42:17;;;;;;;;;;;18.30;67.70;;;;;;5040338;28;1903;-73
2024/04/08 05:44:43;;;;;;;;;;;18.30;67.70;;;;;;5041590;28;1550;-71
2024/04/08 05:47:08;;;;;;;;;;;18.30;67.70;;;;;;5042827;28;1486;-72
2024/04/08 05:49:33;;;;;;;;;;;18.30;67.70;;;;;;5074905;28;1630;-72
2024/04/08 05:51:59;;;;;;;;;;;18.30;67.70;;;;;;5072738;28;1340;-73
2024/04/08 05:54:26;;;;;;;;;;;18.30;67.80;;;;;;5042347;28;1324;-73
2024/04/08 05:56:51;;;;;;;;;;;18.30;68.50;;;;;;5074191;28;1373;-75
2024/04/08 05:59:17;;;;;;;;;;;18.30;67.70;;;;;;5072335;28;1617;-73
2024/04/08 06:01:43;;;;;;;;;;;18.30;67.70;;;;;;5048504;28;1894;-72
2024/04/08 06:04:10;;;;;;;;;;;18.30;67.70;;;;;;5073586;28;1266;-72
2024/04/08 06:06:36;;;;;;;;;;;18.30;67.70;;;;;;5042808;28;1322;-72
2024/04/08 06:09:05;;;;;;;;;;;18.30;67.70;;;;;;5039877;28;1727;-71
2024/04/08 06:11:31;;;;;;;;;;;18.30;67.70;;;;;;5053620;28;1498;-73
2024/04/08 06:13:56;;;;;;;;;;;18.30;67.70;;;;;;5048187;28;1341;-73
2024/04/08 06:16:22;;;;;;;;;;;18.30;67.70;;;;;;5035747;28;1560;-70
2024/04/08 06:18:47;;;;;;;;;;;18.30;67.80;;;;;;5046973;28;1447;-70
2024/04/08 06:21:13;;;;;;;;;;;18.30;67.70;;;;;;5042178;28;1914;-70
2024/04/08 06:23:38;;;;;;;;;;;18.30;67.70;;;;;;5036170;28;1149;-70
2024/04/08 06:26:04;;;;;;;;;;;18.30;67.80;;;;;;5045832;28;1300;-70
2024/04/08 06:28:29;;;;;;;;;;;18.30;67.70;;;;;;5041171;28;1172;-70
2024/04/08 06:30:55;;;;;;;;;;;18.30;67.80;;;;;;5038776;28;1651;-70
2024/04/08 06:33:21;;;;;;;;;;;18.30;67.80;;;;;;5040784;28;1276;-70
2024/04/08 06:35:47;;;;;;;;;;;18.30;67.70;;;;;;5054110;28;1665;-70
2024/04/08 06:38:13;;;;;;;;;;;18.30;67.70;;;;;;5036396;28;1086;-70
2024/04/08 06:40:41;;;;;;;;;;;18.30;67.80;;;;;;5037263;28;1332;-70
2024/04/08 06:43:07;;;;;;;;;;;18.30;67.80;;;;;;5039397;28;1902;-71
2024/04/08 06:45:32;;;;;;;;;;;18.30;67.80;;;;;;5038995;28;1218;-70
2024/04/08 06:47:58;;;;;;;;;;;18.30;67.80;;;;;;5057502;28;1560;-71
2024/04/08 06:50:23;;;;;;;;;;;18.30;67.80;;;;;;5036803;28;1570;-70
2024/04/08 06:52:49;;;;;;;;;;;18.30;67.80;;;;;;5038137;28;1075;-70
2024/04/08 06:55:16;;;;;;;;;;;18.30;67.80;;;;;;5035132;28;1496;-72
2024/04/08 06:57:42;;;;;;;;;;;18.30;67.80;;;;;;5036129;28;1538;-73
2024/04/08 07:00:09;;;;;;;;;;;18.30;67.80;;;;;;5040723;28;1444;-71
2024/04/08 07:02:35;;;;;;;;;;;18.30;67.80;;;;;;5036801;28;1898;-72
2024/04/08 07:05:01;;;;;;;;;;;18.30;67.80;;;;;;5046035;28;1575;-71
2024/04/08 07:07:27;;;;;;;;;;;18.30;67.80;;;;;;5036776;28;1568;-71
2024/04/08 07:09:53;;;;;;;;;;;18.30;67.90;;;;;;5038998;28;1409;-71
2024/04/08 07:12:18;;;;;;;;;;;18.30;67.80;;;;;;5069928;28;1505;-71
2024/04/08 07:14:43;;;;;;;;;;;18.30;67.80;;;;;;5069351;28;1437;-71
2024/04/08 07:17:09;;;;;;;;;;;18.30;67.80;;;;;;5037721;28;1284;-71
2024/04/08 07:19:34;;;;;;;;;;;18.30;67.80;;;;;;5036143;28;1489;-71
2024/04/08 07:22:00;;;;;;;;;;;18.30;67.80;;;;;;5036658;28;1963;-71
2024/04/08 07:24:25;;;;;;;;;;;18.30;67.80;;;;;;5069548;28;866;-71
2024/04/08 07:26:51;;;;;;;;;;;18.30;67.80;;;;;;5042375;28;1482;-71
2024/04/08 07:29:19;;;;;;;;;;;18.30;67.80;;;;;;5038434;28;1349;-71
2024/04/08 07:31:45;;;;;;;;;;;18.30;67.90;;;;;;5044297;28;1635;-74
2024/04/08 07:34:10;;;;;;;;;;;18.30;67.80;;;;;;5034998;28;1214;-73
2024/04/08 07:36:36;;;;;;;;;;;18.30;67.90;;;;;;5040456;28;1330;-73
2024/04/08 07:39:02;;;;;;;;;;;18.30;67.80;;;;;;5057186;28;1684;-72
2024/04/08 07:41:28;;;;;;;;;;;18.30;67.80;;;;;;5044689;28;1906;-72
2024/04/08 07:43:53;;;;;;;;;;;18.30;67.90;;;;;;5043175;28;1534;-72
2024/04/08 07:46:20;;;;;;;;;;;18.30;67.80;;;;;;5041490;28;1276;-72
2024/04/08 07:48:45;;;;;;;;;;;18.30;67.80;;;;;;5043268;28;1493;-72
2024/04/08 07:51:11;;;;;;;;;;;18.30;67.90;;;;;;5042822;28;1695;-72
2024/04/08 07:53:37;;;;;;;;;;;18.30;67.80;;;;;;5040284;28;1226;-72
2024/04/08 07:56:02;;;;;;;;;;;18.30;67.80;;;;;;5042612;28;1700;-72
2024/04/08 07:58:29;;;;;;;;;;;18.30;67.90;;;;;;5040481;28;1472;-72
2024/04/08 08:00:58;;;;;;;;;;;18.30;67.90;;;;;;5041502;28;1525;-72
2024/04/08 08:03:26;;;;;;;;;;;18.30;67.80;;;;;;5039964;28;1910;-72
2024/04/08 08:05:52;;;;;;;;;;;18.30;67.90;;;;;;5042947;28;1260;-72
2024/04/08 08:08:17;;;;;;;;;;;18.30;67.90;;;;;;5037921;28;1366;-72
2024/04/08 08:10:44;;;;;;;;;;;18.30;67.90;;;;;;5056858;28;1643;-72
2024/04/08 08:14:59;;;;;;;;;;;18.30;67.90;;;;;;5544344;25;2079;-70
2024/04/08 08:17:27;;;;;;;;;;;18.30;67.90;;;;;;5475868;26;1725;-70
2024/04/08 08:19:54;;;;;;;;;;;18.30;67.90;;;;;;5469225;26;1758;-70
2024/04/08 08:22:20;;;;;;;;;;;18.30;67.90;;;;;;5467505;26;1459;-70
2024/04/08 08:24:45;;;;;;;;;;;18.30;67.90;;;;;;5482908;26;1759;-70
2024/04/08 08:27:11;;;;;;;;;;;18.30;67.90;;;;;;5460604;26;1417;-70
2024/04/08 08:29:36;;;;;;;;;;;18.30;67.90;;;;;;5466562;26;1819;-70
2024/04/08 08:32:02;;;;;;;;;;;18.30;67.90;;;;;;5486482;26;1817;-70
2024/04/08 08:34:27;;;;;;;;;;;18.30;67.90;;;;;;5475213;26;1827;-69
2024/04/08 08:36:53;;;;;;;;;;;18.30;67.80;;;;;;5482967;26;1668;-70
2024/04/08 08:39:18;;;;;;;;;;;18.30;67.80;;;;;;5483293;26;1429;-70
2024/04/08 08:41:44;;;;;;;;;;;18.30;67.90;;;;;;5482720;26;2038;-70
2024/04/08 08:44:10;;;;;;;;;;;18.30;67.90;;;;;;5456956;26;1784;-70
2024/04/08 08:46:35;;;;;;;;;;;18.30;67.90;;;;;;5484070;25;1945;-70
2024/04/08 08:49:01;;;;;;;;;;;18.30;67.90;;;;;;5469055;26;1992;-70
2024/04/08 08:51:27;;;;;;;;;;;18.30;67.90;;;;;;5466424;26;1808;-72
2024/04/08 08:53:53;;;;;;;;;;;18.30;67.90;;;;;;5481909;26;1822;-72
2024/04/08 08:56:19;;;;;;;;;;;18.30;67.90;;;;;;5477370;26;1865;-72
2024/04/08 08:58:47;;;;;;;;;;;18.30;67.90;;;;;;5464981;26;1464;-70
2024/04/08 09:01:14;;;;;;;;;;;18.30;67.90;;;;;;5468305;26;1688;-71
2024/04/08 09:03:40;;;;;;;;;;;18.30;67.90;;;;;;5466044;26;1872;-72
2024/04/08 09:06:08;;;;;;;;;;;18.30;67.90;;;;;;5466558;26;1960;-71
2024/04/08 09:08:34;;;;;;;;;;;18.30;67.90;;;;;;5483801;26;1844;-72
2024/04/08 09:11:04;;;;;;;;;;;18.30;67.90;;;;;;5483682;25;1957;-73
2024/04/08 09:13:31;;;;;;;;;;;18.30;67.90;;;;;;5484316;26;1819;-72
2024/04/08 09:15:56;;;;;;;;;;;18.30;67.90;;;;;;5476876;25;2013;-70
2024/04/08 09:18:21;;;;;;;;;;;18.30;67.90;;;;;;5466107;26;1627;-72
2024/04/08 09:20:47;;;;;;;;;;;18.30;67.90;;;;;;5480510;26;2001;-70
2024/04/08 09:23:13;;;;;;;;;;;18.30;67.90;;;;;;5466941;26;1611;-72
2024/04/08 09:25:38;;;;;;;;;;;18.30;67.90;;;;;;5471148;26;1490;-73
2024/04/08 09:28:04;;;;;;;;;;;18.30;67.90;;;;;;5466504;26;1883;-73
2024/04/08 09:30:29;;;;;;;;;;;18.30;67.90;;;;;;5451027;26;1252;-73
2024/04/08 09:32:55;;;;;;;;;;;18.30;67.90;;;;;;5466740;26;1910;-73
2024/04/08 09:35:21;;;;;;;;;;;18.30;67.90;;;;;;5452213;26;1016;-73
2024/04/08 09:37:51;;;;;;;;;;;18.30;67.90;;;;;;5424846;26;2400;-73
2024/04/08 09:40:17;;;;;;;;;;;18.30;67.90;;;;;;5445311;26;1155;-71
2024/04/08 09:42:42;;;;;;;;;;;18.30;67.90;;;;;;5468006;26;1049;-73
2024/04/08 09:45:09;;;;;;;;;;;18.30;67.90;;;;;;5436064;26;1887;-72
2024/04/08 09:47:34;;;;;;;;;;;18.30;68.00;;;;;;5463859;26;1412;-71
2024/04/08 09:49:59;;;;;;;;;;;18.30;68.00;;;;;;5453797;26;1456;-73
2024/04/08 09:52:25;;;;;;;;;;;18.30;68.00;;;;;;5466175;26;1917;-73
2024/04/08 09:54:51;;;;;;;;;;;18.30;68.00;;;;;;5421375;26;1873;-71
2024/04/08 09:57:16;;;;;;;;;;;18.30;68.00;;;;;;5432418;26;1777;-73
2024/04/08 09:59:42;;;;;;;;;;;18.30;68.00;;;;;;5450120;26;1457;-73
2024/04/08 10:02:14;;;;;;;;;;;18.30;67.90;;;;;;5467955;26;1778;-73
2024/04/08 10:04:39;;;;;;;;;;;18.30;67.90;;;;;;5450512;26;1751;-73
2024/04/08 10:07:05;;;;;;;;;;;18.30;67.90;;;;;;5461460;26;1746;-73
2024/04/08 10:09:31;;;;;;;;;;;18.30;68.00;;;;;;5450779;26;1330;-72
2024/04/08 10:11:56;;;;;;;;;;;18.30;67.90;;;;;;5466144;26;1884;-73
2024/04/08 10:14:23;;;;;;;;;;;18.30;68.00;;;;;;5466185;26;1825;-73
2024/04/08 10:16:49;;;;;;;;;;;18.30;68.00;;;;;;5470167;26;1904;-72
2024/04/08 10:19:15;;;;;;;;;;;18.30;67.90;;;;;;5447994;26;1755;-73
2024/04/08 10:21:40;;;;;;;;;;;18.30;68.00;;;;;;5467001;26;1739;-70
2024/04/08 10:24:06;;;;;;;;;;;18.30;67.90;;;;;;5436349;26;2259;-74
2024/04/08 10:26:34;;;;;;;;;;;18.30;68.00;;;;;;5472140;26;1740;-72
2024/04/08 10:28:59;;;;;;;;;;;18.30;68.00;;;;;;5467600;26;1884;-72
2024/04/08 10:31:28;;;;;;;;;;;18.30;68.70;;;;;;5472972;26;1830;-73
2024/04/08 10:33:53;;;;;;;;;;;18.30;68.00;;;;;;5447727;26;1822;-74
2024/04/08 10:36:19;;;;;;;;;;;18.30;68.00;;;;;;5449034;26;1816;-72
2024/04/08 10:38:44;;;;;;;;;;;18.30;68.00;;;;;;5439588;26;1426;-69
2024/04/08 10:41:10;;;;;;;;;;;18.30;68.00;;;;;;5462060;26;1927;-74
2024/04/08 10:43:36;;;;;;;;;;;18.30;68.00;;;;;;5453499;26;1465;-70
2024/04/08 10:46:07;;;;;;;;;;;18.30;69.00;;;;;;5451325;26;1818;-74
2024/04/08 10:48:33;;;;;;;;;;;18.40;69.40;;;;;;5450160;26;1322;-74
2024/04/08 10:50:59;;;;;;;;;;;18.50;69.60;;;;;;5459380;26;1686;-76
2024/04/08 10:53:25;;;;;;;;;;;18.50;69.30;;;;;;5463957;26;1863;-74
2024/04/08 10:55:50;;;;;;;;;;;18.60;70.20;;;;;;5408729;26;1883;-74
2024/04/08 10:58:16;;;;;;;;;;;18.70;69.90;;;;;;5437616;26;1776;-75
2024/04/08 11:00:42;;;;;;;;;;;18.70;69.10;;;;;;5467954;26;1755;-75
2024/04/08 11:03:08;;;;;;;;;;;18.80;68.80;;;;;;5464935;26;1781;-75
2024/04/08 11:05:33;;;;;;;;;;;18.90;68.50;;;;;;5463080;26;1354;-75
2024/04/08 11:08:00;;;;;;;;;;;18.90;68.10;;;;;;5427991;26;1780;-72
2024/04/08 11:10:27;;;;;;;;;;;19.00;67.60;;;;;;5446163;26;1498;-73
2024/04/08 11:12:53;;;;;;;;;;;19.00;67.80;;;;;;5464449;26;1866;-73
2024/04/08 11:15:18;;;;;;;;;;;19.10;67.90;;;;;;5463200;26;1741;-74
2024/04/08 11:17:44;;;;;;;;;;;19.10;67.40;;;;;;5463077;26;1877;-72
2024/04/08 11:20:11;;;;;;;;;;;19.10;67.70;;;;;;5467320;26;2024;-72
2024/04/08 11:22:36;;;;;;;;;;;19.20;68.10;;;;;;5420014;26;1668;-74
2024/04/08 11:25:03;;;;;;;;;;;19.20;67.80;;;;;;5436162;26;1486;-74
2024/04/08 11:27:28;;;;;;;;;;;19.20;67.80;;;;;;5440511;26;1730;-74
2024/04/08 11:29:54;;;;;;;;;;;19.20;68.10;;;;;;5466465;26;1876;-74
2024/04/08 11:32:20;;;;;;;;;;;19.20;67.90;;;;;;5464904;26;1910;-74
2024/04/08 11:34:45;;;;;;;;;;;19.30;67.70;;;;;;5464284;26;1853;-74
2024/04/08 11:37:11;;;;;;;;;;;19.30;67.70;;;;;;5452954;26;2229;-74
2024/04/08 11:39:37;;;;;;;;;;;19.30;68.10;;;;;;5465287;26;1473;-75
2024/04/08 11:42:02;;;;;;;;;;;19.30;68.60;;;;;;5439851;26;1429;-75
2024/04/08 11:44:31;;;;;;;;;;;19.30;68.20;;;;;;5432535;26;1909;-74
2024/04/08 11:46:56;;;;;;;;;;;19.30;68.00;;;;;;5462232;26;1605;-75
2024/04/08 11:49:22;;;;;;;;;;;19.30;67.50;;;;;;5448538;26;1942;-75
2024/04/08 11:51:47;;;;;;;;;;;19.30;67.20;;;;;;5465628;26;1833;-75
2024/04/08 11:54:13;;;;;;;;;;;19.40;67.40;;;;;;5463670;26;1850;-76
2024/04/08 11:56:38;;;;;;;;;;;19.40;67.60;;;;;;5459043;26;1877;-75
2024/04/08 11:59:05;;;;;;;;;;;19.40;67.00;;;;;;5430441;26;1456;-75
2024/04/08 12:01:30;;;;;;;;;;;19.40;66.40;;;;;;5457377;26;1378;-75
2024/04/08 12:03:55;;;;;;;;;;;19.50;66.00;;;;;;5463488;26;1465;-74
2024/04/08 12:06:21;;;;;;;;;;;19.50;65.90;;;;;;5462183;26;1573;-76
2024/04/08 12:08:46;;;;;;;;;;;19.50;65.70;;;;;;5407297;26;2170;-75
2024/04/08 12:11:12;;;;;;;;;;;19.50;65.20;;;;;;5446340;26;2483;-74
2024/04/08 12:13:37;;;;;;;;;;;19.50;64.30;;;;;;5459206;26;2464;-73
2024/04/08 12:16:03;;;;;;;;;;;19.60;63.00;;;;;;5468484;26;2503;-73
2024/04/08 12:18:28;;;;;;;;;;;19.60;63.60;;;;;;5422553;26;1248;-73
2024/04/08 12:20:54;;;;;;;;;;;19.60;64.30;;;;;;5467311;26;1032;-74
2024/04/08 12:23:19;;;;;;;;;;;19.60;63.00;;;;;;5457763;26;1075;-74
2024/04/08 12:25:45;;;;;;;;;;;19.60;63.20;;;;;;5435267;26;1351;-73
2024/04/08 12:28:13;;;;;;;;;;;19.60;63.10;;;;;;5452127;26;1484;-73
2024/04/08 12:30:41;;;;;;;;;;;19.60;63.70;;;;;;5448411;26;1520;-74
2024/04/08 12:33:07;;;;;;;;;;;19.70;63.00;;;;;;5461487;26;2009;-73
2024/04/08 12:35:33;;;;;;;;;;;19.70;63.40;;;;;;5430476;26;1139;-73
2024/04/08 12:37:58;;;;;;;;;;;19.70;63.50;;;;;;5437505;26;1991;-74
2024/04/08 12:40:24;;;;;;;;;;;19.70;62.90;;;;;;5451502;26;1142;-73
2024/04/08 12:42:49;;;;;;;;;;;19.70;62.90;;;;;;5469515;26;1550;-73
2024/04/08 12:45:15;;;;;;;;;;;19.70;62.30;;;;;;5450568;26;1511;-73
2024/04/08 12:47:40;;;;;;;;;;;19.70;62.70;;;;;;5467683;26;1515;-73
2024/04/08 12:50:06;;;;;;;;;;;19.70;62.80;;;;;;5466225;26;1867;-73
2024/04/08 12:52:33;;;;;;;;;;;19.80;62.20;;;;;;5448640;26;1385;-73
2024/04/08 12:54:59;;;;;;;;;;;19.80;62.10;;;;;;5460941;26;1854;-73
2024/04/08 12:57:24;;;;;;;;;;;19.80;62.00;;;;;;5464328;26;1961;-73
2024/04/08 12:59:50;;;;;;;;;;;19.80;62.10;;;;;;5448156;26;1893;-73
2024/04/08 13:02:15;;;;;;;;;;;19.80;62.10;;;;;;5452332;26;1874;-73
2024/04/08 13:04:42;;;;;;;;;;;19.80;62.40;;;;;;5471019;26;1610;-73
2024/04/08 13:07:08;;;;;;;;;;;19.80;62.50;;;;;;5432698;26;1907;-73
2024/04/08 13:09:33;;;;;;;;;;;19.80;62.70;;;;;;5450871;26;1858;-73
2024/04/08 13:11:59;;;;;;;;;;;19.80;61.20;;;;;;5468473;26;1854;-73
2024/04/08 13:14:24;;;;;;;;;;;19.80;61.40;;;;;;5438883;26;1860;-73
2024/04/08 13:16:50;;;;;;;;;;;19.80;61.60;;;;;;5435406;26;1765;-73
2024/04/08 13:19:15;;;;;;;;;;;19.80;62.10;;;;;;5471938;26;1688;-72
2024/04/08 13:21:43;;;;;;;;;;;19.80;62.10;;;;;;5460044;26;1883;-73
2024/04/08 13:24:09;;;;;;;;;;;19.80;62.00;;;;;;5459864;26;1688;-73
2024/04/08 13:26:36;;;;;;;;;;;19.80;62.00;;;;;;5464568;26;1469;-73
2024/04/08 13:29:02;;;;;;;;;;;19.80;60.90;;;;;;5469038;26;1855;-73
2024/04/08 13:31:27;;;;;;;;;;;19.80;60.30;;;;;;5474105;26;1878;-73
2024/04/08 13:33:53;;;;;;;;;;;19.80;60.50;;;;;;5466374;26;1878;-73
2024/04/08 13:36:18;;;;;;;;;;;19.90;59.60;;;;;;5464162;26;1912;-73
2024/04/08 13:38:44;;;;;;;;;;;19.90;59.80;;;;;;5430342;26;2533;-73
2024/04/08 13:41:09;;;;;;;;;;;20.00;59.40;;;;;;5468416;26;1637;-74
2024/04/08 13:43:35;;;;;;;;;;;20.00;59.40;;;;;;5418464;26;5243;-74
2024/04/08 13:46:01;;;;;;;;;;;20.00;58.50;;;;;;5429672;26;1892;-73
2024/04/08 13:48:26;;;;;;;;;;;20.00;58.50;;;;;;5443355;26;1452;-74
2024/04/08 13:50:52;;;;;;;;;;;20.10;58.70;;;;;;5430432;26;1797;-73
2024/04/08 13:53:17;;;;;;;;;;;20.10;58.90;;;;;;5425841;26;1876;-73
2024/04/08 13:55:53;;;;;;;;;;;20.10;59.20;;;;;;5397928;26;1574;-74
2024/04/08 13:58:19;;;;;;;;;;;20.10;59.80;;;;;;5419001;26;1837;-74
2024/04/08 14:00:44;;;;;;;;;;;20.00;60.90;;;;;;5428102;26;1663;-73
2024/04/08 14:03:10;;;;;;;;;;;20.00;60.70;;;;;;5434205;26;1875;-73
2024/04/08 14:05:35;;;;;;;;;;;20.00;60.90;;;;;;5433331;26;1807;-74
2024/04/08 14:08:01;;;;;;;;;;;20.00;61.70;;;;;;5445477;26;1725;-73
2024/04/08 14:10:27;;;;;;;;;;;20.00;60.20;;;;;;5446548;26;1713;-74
2024/04/08 14:12:52;;;;;;;;;;;20.00;60.30;;;;;;5427185;26;2022;-73
2024/04/08 14:15:18;;;;;;;;;;;20.00;60.60;;;;;;5429751;26;1794;-73
2024/04/08 14:17:43;;;;;;;;;;;20.00;60.70;;;;;;5424407;26;1527;-73
2024/04/08 14:20:09;;;;;;;;;;;20.00;61.00;;;;;;5449161;26;1910;-72
2024/04/08 14:22:34;;;;;;;;;;;20.00;60.60;;;;;;5428604;26;1368;-73
2024/04/08 14:25:00;;;;;;;;;;;20.00;61.10;;;;;;5428604;26;1342;-73